Time;durP1;ratioP1;P1;durP2;ratioP2;P2;SDS_P1;SDS_P2;PMS_P1;PMS_P2;Temp;Humidity;BMP_temperature;BMP_pressure;BME280_temperature;BME280_humidity;BME280_pressure;Samples;Min_cycle;Max_cycle;Signal;HPM_P1;HPM_P2
2023/09/24 00:00:55;;;;;;;6.30;3.25;;;15.70;99.80;;;;;;4994567;28;20022;-68
2023/09/24 00:03:20;;;;;;;7.20;3.10;;;15.70;99.80;;;;;;4994624;28;20023;-66
2023/09/24 00:05:46;;;;;;;6.35;2.67;;;15.70;99.90;;;;;;4994170;28;20092;-66
2023/09/24 00:08:12;;;;;;;4.55;2.95;;;15.60;99.90;;;;;;4994499;28;20022;-66
2023/09/24 00:10:38;;;;;;;5.35;3.15;;;15.60;99.90;;;;;;4994399;28;20042;-67
2023/09/24 00:13:03;;;;;;;4.57;2.75;;;15.60;99.90;;;;;;4994381;28;20029;-66
2023/09/24 00:15:30;;;;;;;6.10;2.58;;;15.60;99.90;;;;;;4994251;28;20400;-67
2023/09/24 00:17:56;;;;;;;5.93;3.63;;;15.60;99.90;;;;;;4994520;28;20097;-75
2023/09/24 00:20:21;;;;;;;4.63;2.50;;;15.60;99.90;;;;;;4993986;28;20109;-75
2023/09/24 00:22:47;;;;;;;4.30;2.33;;;15.60;99.90;;;;;;4994452;28;20027;-72
2023/09/24 00:25:14;;;;;;;6.22;2.33;;;15.50;99.90;;;;;;4994073;28;20023;-66
2023/09/24 00:27:40;;;;;;;6.03;2.92;;;15.50;99.90;;;;;;4994415;28;20050;-67
2023/09/24 00:30:08;;;;;;;4.50;2.60;;;15.50;99.90;;;;;;4993711;28;20042;-73
2023/09/24 00:32:33;;;;;;;4.30;2.67;;;15.50;99.90;;;;;;4994415;28;20022;-66
2023/09/24 00:34:59;;;;;;;8.63;2.72;;;15.50;99.90;;;;;;4993964;28;20030;-76
2023/09/24 00:37:24;;;;;;;5.72;2.83;;;15.40;99.90;;;;;;4993928;28;20034;-71
2023/09/24 00:39:50;;;;;;;5.32;2.85;;;15.40;99.90;;;;;;4993854;28;20019;-66
2023/09/24 00:42:16;;;;;;;4.30;3.00;;;15.40;99.90;;;;;;4994072;28;20384;-76
2023/09/24 00:44:41;;;;;;;4.63;3.08;;;15.40;99.90;;;;;;4994202;28;20491;-72
2023/09/24 00:47:08;;;;;;;5.90;2.70;;;15.40;99.90;;;;;;4993856;28;20045;-65
2023/09/24 00:49:34;;;;;;;10.10;3.40;;;15.30;99.90;;;;;;4993468;28;20026;-76
2023/09/24 00:52:00;;;;;;;6.25;3.10;;;15.30;99.90;;;;;;4993821;28;20049;-66
2023/09/24 00:54:26;;;;;;;6.85;3.75;;;15.30;99.90;;;;;;4993779;28;20461;-66
2023/09/24 00:56:52;;;;;;;7.75;3.80;;;15.30;99.90;;;;;;4993861;28;20037;-74
2023/09/24 00:59:18;;;;;;;6.05;3.40;;;15.30;99.90;;;;;;4993876;28;20023;-66
2023/09/24 01:01:44;;;;;;;5.90;3.15;;;15.30;99.90;;;;;;4993872;28;20435;-68
2023/09/24 01:04:11;;;;;;;5.20;2.85;;;15.30;99.90;;;;;;4993194;28;20468;-70
2023/09/24 01:06:37;;;;;;;6.00;3.53;;;15.30;99.90;;;;;;4993654;28;20022;-70
2023/09/24 01:09:08;;;;;;;7.47;3.83;;;15.30;99.90;;;;;;4993796;28;20037;-73
2023/09/24 01:11:34;;;;;;;7.32;4.18;;;15.20;99.90;;;;;;4993543;28;20031;-75
2023/09/24 01:14:00;;;;;;;7.60;5.07;;;15.20;99.90;;;;;;4993710;28;20446;-73
2023/09/24 01:16:25;;;;;;;5.15;4.40;;;15.20;99.90;;;;;;4993481;28;20109;-65
2023/09/24 01:18:53;;;;;;;10.15;5.00;;;15.20;99.90;;;;;;4993473;28;20019;-65
2023/09/24 01:21:19;;;;;;;6.25;4.32;;;15.20;99.90;;;;;;4993497;28;20105;-70
2023/09/24 01:23:47;;;;;;;8.50;5.20;;;15.20;99.90;;;;;;4993599;28;20057;-76
2023/09/24 01:26:13;;;;;;;12.32;6.32;;;15.10;99.90;;;;;;4993393;28;20026;-67
2023/09/24 01:28:39;;;;;;;6.50;4.50;;;15.10;99.90;;;;;;4993742;28;20122;-66
2023/09/24 01:31:06;;;;;;;8.82;5.85;;;15.10;99.90;;;;;;4993450;28;20042;-65
2023/09/24 01:33:32;;;;;;;8.48;4.90;;;15.10;99.90;;;;;;4993263;28;20429;-66
2023/09/24 01:35:58;;;;;;;7.75;4.70;;;15.10;99.90;;;;;;4993278;28;20480;-67
2023/09/24 01:38:25;;;;;;;7.05;4.35;;;15.10;99.90;;;;;;4993397;28;20030;-67
2023/09/24 01:40:51;;;;;;;8.48;4.57;;;15.00;99.90;;;;;;4992024;28;20388;-65
2023/09/24 01:43:18;;;;;;;9.18;4.45;;;15.00;99.90;;;;;;4995962;28;20189;-76
2023/09/24 01:45:44;;;;;;;6.13;4.53;;;15.00;99.90;;;;;;4997262;28;20023;-74
2023/09/24 01:48:11;;;;;;;8.63;4.57;;;14.90;99.90;;;;;;4996780;28;20014;-69
2023/09/24 01:50:37;;;;;;;9.13;5.10;;;14.90;99.90;;;;;;4996931;28;20109;-75
2023/09/24 01:53:08;;;;;;;6.75;4.18;;;14.90;99.90;;;;;;4997031;28;20022;-65
2023/09/24 01:55:36;;;;;;;9.52;3.80;;;14.90;99.90;;;;;;4997052;28;20052;-74
2023/09/24 01:58:02;;;;;;;8.68;3.97;;;14.90;99.90;;;;;;4996795;28;20134;-68
2023/09/24 02:00:27;;;;;;;8.63;3.85;;;14.80;99.90;;;;;;4995702;28;20492;-75
2023/09/24 02:02:56;;;;;;;8.00;4.03;;;14.80;99.90;;;;;;4996606;28;20015;-65
2023/09/24 02:05:25;;;;;;;8.88;4.07;;;14.90;99.90;;;;;;4996630;28;20062;-76
2023/09/24 02:07:51;;;;;;;5.80;3.88;;;14.80;99.90;;;;;;4996774;28;20101;-75
2023/09/24 02:10:18;;;;;;;7.35;3.97;;;14.80;99.90;;;;;;4996601;28;20126;-74
2023/09/24 02:12:45;;;;;;;6.72;4.13;;;14.80;99.90;;;;;;4996591;28;20026;-66
2023/09/24 02:15:12;;;;;;;10.00;4.82;;;14.80;99.90;;;;;;4996690;28;20101;-66
2023/09/24 02:17:41;;;;;;;8.18;3.85;;;14.80;99.90;;;;;;4996281;28;20033;-75
2023/09/24 02:20:25;;;;;;;8.20;3.70;;;14.80;99.90;;;;;;4996782;28;20396;-75
2023/09/24 02:22:52;;;;;;;5.65;3.58;;;14.80;99.90;;;;;;4996377;28;20498;-65
2023/09/24 02:25:21;;;;;;;6.95;4.05;;;14.80;99.90;;;;;;4996503;28;20015;-65
2023/09/24 02:27:50;;;;;;;7.10;3.80;;;14.80;99.90;;;;;;4996285;28;20426;-70
2023/09/24 02:30:17;;;;;;;7.18;3.58;;;14.80;99.90;;;;;;4996272;28;20483;-73
2023/09/24 02:32:43;;;;;;;6.22;3.95;;;14.80;99.90;;;;;;4996022;28;20026;-76
2023/09/24 02:35:13;;;;;;;6.88;3.88;;;14.70;99.90;;;;;;4996325;28;20089;-75
2023/09/24 02:37:39;;;;;;;6.70;3.58;;;14.70;99.90;;;;;;4996193;28;20030;-73
2023/09/24 02:40:14;;;;;;;10.07;3.70;;;14.70;99.90;;;;;;4996290;28;20029;-66
2023/09/24 02:42:40;;;;;;;6.22;3.60;;;14.70;99.90;;;;;;4995948;28;20373;-65
2023/09/24 02:45:09;;;;;;;5.93;4.00;;;14.70;99.90;;;;;;4996276;28;20472;-66
2023/09/24 02:47:36;;;;;;;6.65;3.45;;;14.60;99.90;;;;;;5015542;28;20104;-72
2023/09/24 02:50:04;;;;;;;7.60;3.28;;;14.60;99.90;;;;;;5014091;28;20503;-72
2023/09/24 02:52:30;;;;;;;9.25;3.85;;;14.60;99.90;;;;;;5015176;28;20030;-65
2023/09/24 02:54:56;;;;;;;4.85;3.30;;;14.70;99.90;;;;;;5015277;28;20030;-74
2023/09/24 02:57:21;;;;;;;12.02;3.80;;;14.60;99.90;;;;;;5015325;28;20029;-74
2023/09/24 02:59:47;;;;;;;5.60;3.22;;;14.60;99.90;;;;;;5015105;28;20054;-74
2023/09/24 03:02:12;;;;;;;6.32;3.25;;;14.60;99.90;;;;;;5015210;28;20384;-65
2023/09/24 03:04:38;;;;;;;5.65;3.35;;;14.60;99.90;;;;;;5015031;28;20034;-73
2023/09/24 03:07:06;;;;;;;7.00;3.47;;;14.60;99.90;;;;;;5015207;28;20105;-74
2023/09/24 03:09:31;;;;;;;7.75;3.08;;;14.60;99.90;;;;;;5015098;28;20057;-75
2023/09/24 03:11:57;;;;;;;5.10;3.00;;;14.60;99.90;;;;;;5015276;28;20065;-75
2023/09/24 03:14:23;;;;;;;7.75;3.50;;;14.50;99.90;;;;;;5014859;28;20292;-76
2023/09/24 03:16:48;;;;;;;4.50;3.00;;;14.50;99.90;;;;;;5015156;28;20048;-65
2023/09/24 03:19:14;;;;;;;6.85;2.90;;;14.50;99.90;;;;;;5014972;28;20054;-67
2023/09/24 03:21:39;;;;;;;6.15;3.60;;;14.50;99.90;;;;;;5015064;28;20084;-71
2023/09/24 03:24:07;;;;;;;7.18;3.03;;;14.50;99.90;;;;;;5014952;28;20029;-73
2023/09/24 03:26:33;;;;;;;5.53;3.10;;;14.50;99.90;;;;;;5014936;28;20026;-68
2023/09/24 03:29:02;;;;;;;8.15;3.30;;;14.50;99.90;;;;;;5014454;28;20107;-66
2023/09/24 03:31:27;;;;;;;5.18;3.10;;;14.50;99.90;;;;;;5014675;28;20030;-66
2023/09/24 03:33:53;;;;;;;6.20;3.40;;;14.50;99.90;;;;;;5014449;28;20026;-69
2023/09/24 03:36:19;;;;;;;5.93;3.30;;;14.40;99.90;;;;;;5014764;28;20109;-66
2023/09/24 03:38:45;;;;;;;8.13;4.30;;;14.40;99.90;;;;;;5014665;28;20483;-66
2023/09/24 03:41:10;;;;;;;7.45;3.58;;;14.40;99.90;;;;;;5014703;28;20382;-75
2023/09/24 03:43:36;;;;;;;9.02;2.88;;;14.40;99.90;;;;;;5014264;28;20026;-66
2023/09/24 03:46:02;;;;;;;11.25;2.83;;;14.40;99.90;;;;;;5014238;28;20097;-66
2023/09/24 03:48:28;;;;;;;5.90;3.22;;;14.50;99.90;;;;;;5014601;28;20471;-72
2023/09/24 03:50:54;;;;;;;5.28;3.17;;;14.40;99.90;;;;;;5014480;28;20038;-75
2023/09/24 03:53:19;;;;;;;7.82;3.15;;;14.40;99.90;;;;;;5014522;28;20052;-73
2023/09/24 03:55:45;;;;;;;11.07;3.58;;;14.40;99.90;;;;;;5014179;28;20029;-73
2023/09/24 03:58:11;;;;;;;8.75;3.08;;;14.30;99.90;;;;;;5014148;28;20024;-69
2023/09/24 04:00:37;;;;;;;7.25;3.47;;;14.40;99.90;;;;;;5014348;28;20025;-74
2023/09/24 04:03:03;;;;;;;7.07;3.00;;;14.40;99.90;;;;;;5014269;28;20030;-66
2023/09/24 04:05:30;;;;;;;10.85;3.10;;;14.40;99.90;;;;;;5013332;28;20041;-76
2023/09/24 04:07:56;;;;;;;6.97;3.80;;;14.30;99.90;;;;;;5014107;28;20026;-75
2023/09/24 04:10:23;;;;;;;10.52;3.85;;;14.20;99.90;;;;;;5014017;28;20048;-65
2023/09/24 04:12:50;;;;;;;7.90;3.28;;;14.30;99.90;;;;;;5013894;28;20018;-72
2023/09/24 04:15:19;;;;;;;7.47;3.35;;;14.30;99.90;;;;;;5014064;28;20108;-76
2023/09/24 04:17:52;;;;;;;11.05;3.67;;;14.30;99.90;;;;;;5014110;28;20053;-74
2023/09/24 04:20:20;;;;;;;6.95;3.90;;;14.30;99.90;;;;;;5013957;28;20037;-66
2023/09/24 04:22:45;;;;;;;8.13;3.55;;;14.30;99.90;;;;;;5013989;28;20424;-66
2023/09/24 04:25:14;;;;;;;6.28;3.55;;;14.20;99.90;;;;;;5013690;28;20100;-75
2023/09/24 04:27:43;;;;;;;7.45;4.10;;;14.20;99.90;;;;;;4997913;28;20034;-65
2023/09/24 04:30:15;;;;;;;7.55;3.88;;;14.20;99.90;;;;;;5011936;28;20046;-65
2023/09/24 04:32:41;;;;;;;11.02;3.67;;;14.20;99.90;;;;;;5013643;28;20022;-65
2023/09/24 04:35:09;;;;;;;7.93;3.67;;;14.20;99.90;;;;;;5013333;28;20030;-65
2023/09/24 04:37:36;;;;;;;9.00;3.72;;;14.20;99.90;;;;;;5013995;28;20058;-75
2023/09/24 04:40:05;;;;;;;11.77;4.07;;;14.20;99.90;;;;;;5013305;28;20052;-74
2023/09/24 04:42:32;;;;;;;6.50;3.72;;;14.10;99.90;;;;;;5012965;28;20033;-76
2023/09/24 04:44:59;;;;;;;8.88;3.47;;;14.20;99.90;;;;;;5013753;28;20022;-66
2023/09/24 04:47:25;;;;;;;7.57;3.20;;;14.10;99.90;;;;;;5012928;28;20034;-64
2023/09/24 04:49:50;;;;;;;9.02;4.38;;;14.10;99.90;;;;;;5012953;28;20087;-74
2023/09/24 04:52:16;;;;;;;8.98;3.70;;;14.10;99.90;;;;;;5013104;28;20387;-75
2023/09/24 04:54:41;;;;;;;9.68;4.28;;;14.10;99.90;;;;;;5013404;28;20026;-68
2023/09/24 04:57:09;;;;;;;9.30;3.63;;;14.10;99.90;;;;;;5012473;28;20069;-64
2023/09/24 04:59:34;;;;;;;7.88;3.95;;;14.10;99.90;;;;;;5007519;28;20022;-74
2023/09/24 05:02:00;;;;;;;8.40;3.53;;;14.10;99.90;;;;;;4998285;28;20026;-69
2023/09/24 05:04:26;;;;;;;6.53;3.30;;;14.10;99.90;;;;;;5010073;28;20087;-65
2023/09/24 05:06:51;;;;;;;5.80;2.95;;;14.10;99.90;;;;;;5004198;28;20361;-75
2023/09/24 05:09:17;;;;;;;5.68;3.40;;;14.00;99.90;;;;;;5012727;28;20433;-75
2023/09/24 05:11:42;;;;;;;6.68;3.63;;;14.10;99.90;;;;;;5013090;28;20038;-66
2023/09/24 05:14:08;;;;;;;4.80;3.10;;;14.00;99.90;;;;;;5012448;28;20037;-74
2023/09/24 05:16:34;;;;;;;7.50;3.28;;;14.10;99.90;;;;;;5005317;28;20117;-70
2023/09/24 05:19:02;;;;;;;8.70;3.58;;;14.00;99.90;;;;;;4997373;28;20109;-65
2023/09/24 05:21:28;;;;;;;7.95;3.65;;;14.10;99.90;;;;;;4997452;28;20018;-75
2023/09/24 05:23:54;;;;;;;6.13;3.30;;;14.00;99.90;;;;;;4997508;28;20019;-73
2023/09/24 05:26:20;;;;;;;6.40;3.05;;;14.00;99.90;;;;;;4997265;28;20026;-74
2023/09/24 05:28:46;;;;;;;5.97;3.42;;;14.00;99.90;;;;;;5003343;28;20022;-74
2023/09/24 05:31:12;;;;;;;6.63;3.55;;;14.00;99.90;;;;;;5016967;28;20388;-65
2023/09/24 05:33:38;;;;;;;6.72;3.78;;;14.00;99.90;;;;;;5016607;28;20056;-67
2023/09/24 05:36:04;;;;;;;8.95;3.38;;;14.00;99.90;;;;;;5017246;28;20030;-73
2023/09/24 05:38:30;;;;;;;8.82;3.28;;;14.00;99.90;;;;;;5016909;28;20030;-75
2023/09/24 05:40:56;;;;;;;11.23;3.25;;;14.00;99.90;;;;;;5016823;28;20028;-77
2023/09/24 05:43:22;;;;;;;9.52;3.15;;;14.00;99.90;;;;;;5031719;28;20025;-67
2023/09/24 05:45:49;;;;;;;9.40;3.47;;;14.00;99.90;;;;;;5016522;28;20039;-72
2023/09/24 05:48:15;;;;;;;5.70;3.28;;;14.00;99.90;;;;;;5016601;28;20148;-68
2023/09/24 05:50:41;;;;;;;7.80;3.50;;;14.00;99.90;;;;;;5016111;28;20112;-66
2023/09/24 05:53:09;;;;;;;7.05;3.17;;;14.00;99.90;;;;;;5003493;28;20054;-69
2023/09/24 05:55:35;;;;;;;6.30;3.00;;;14.00;99.90;;;;;;5006329;28;20053;-71
2023/09/24 05:58:00;;;;;;;6.22;2.90;;;14.00;99.90;;;;;;4996022;28;20420;-65
2023/09/24 06:00:28;;;;;;;7.20;3.17;;;14.00;99.90;;;;;;5004920;28;20101;-66
2023/09/24 06:02:54;;;;;;;6.28;2.92;;;14.00;99.90;;;;;;5015148;28;20383;-66
2023/09/24 06:05:19;;;;;;;6.60;3.33;;;14.00;99.90;;;;;;4996836;28;20057;-66
2023/09/24 06:07:45;;;;;;;6.32;2.97;;;14.00;99.90;;;;;;5003149;28;20080;-67
2023/09/24 06:10:11;;;;;;;5.22;2.70;;;13.90;99.90;;;;;;5015670;28;20475;-76
2023/09/24 06:12:36;;;;;;;6.45;3.25;;;13.90;99.90;;;;;;5016086;28;20026;-76
2023/09/24 06:15:03;;;;;;;11.30;3.63;;;14.00;99.90;;;;;;5016186;28;20091;-65
2023/09/24 06:17:29;;;;;;;6.97;3.65;;;14.00;99.90;;;;;;5015698;28;20021;-76
2023/09/24 06:19:55;;;;;;;9.52;3.20;;;14.00;99.90;;;;;;5016269;28;20037;-72
2023/09/24 06:22:25;;;;;;;6.30;2.45;;;14.00;99.90;;;;;;5015909;28;20538;-66
2023/09/24 06:24:52;;;;;;;7.57;2.80;;;14.10;99.90;;;;;;5010232;28;20030;-75
2023/09/24 06:27:19;;;;;;;5.07;3.08;;;14.10;99.90;;;;;;5015801;28;20022;-66
2023/09/24 06:29:44;;;;;;;6.32;3.20;;;14.10;99.90;;;;;;5015371;28;20566;-67
2023/09/24 06:32:10;;;;;;;6.35;3.13;;;14.10;99.90;;;;;;5005971;28;20062;-66
2023/09/24 06:34:37;;;;;;;4.80;2.90;;;14.10;99.90;;;;;;4995633;28;20452;-74
2023/09/24 06:37:03;;;;;;;11.88;3.17;;;14.10;99.90;;;;;;4996414;28;20034;-73
2023/09/24 06:39:29;;;;;;;5.60;2.72;;;14.20;99.90;;;;;;4996096;28;20069;-74
2023/09/24 06:41:55;;;;;;;6.13;2.88;;;14.30;99.90;;;;;;4997003;28;20022;-69
2023/09/24 06:44:22;;;;;;;7.85;4.10;;;14.30;99.90;;;;;;5012753;28;20097;-75
2023/09/24 06:46:51;;;;;;;8.68;2.85;;;14.40;99.90;;;;;;4996395;28;20026;-70
2023/09/24 06:49:17;;;;;;;4.57;2.80;;;14.40;99.90;;;;;;4995581;28;20022;-66
2023/09/24 06:51:43;;;;;;;5.85;2.85;;;14.40;99.90;;;;;;5016377;28;20104;-67
2023/09/24 06:54:08;;;;;;;3.85;2.22;;;14.40;99.90;;;;;;5010451;28;20030;-66
2023/09/24 06:56:34;;;;;;;5.40;2.80;;;14.40;99.90;;;;;;4999524;28;20038;-66
2023/09/24 06:58:59;;;;;;;6.15;2.95;;;14.40;99.90;;;;;;4992495;28;20113;-75
2023/09/24 07:01:25;;;;;;;10.27;3.40;;;14.40;99.90;;;;;;5004028;28;20022;-76
2023/09/24 07:03:51;;;;;;;6.03;2.80;;;14.50;99.90;;;;;;4999729;28;20054;-77
2023/09/24 07:06:17;;;;;;;8.07;3.10;;;14.50;99.90;;;;;;4993981;28;20030;-76
2023/09/24 07:08:43;;;;;;;7.22;3.15;;;14.60;99.90;;;;;;5010465;28;20025;-67
2023/09/24 07:11:34;;;;;;;6.75;3.10;;;14.60;99.90;;;;;;5003935;28;20489;-69
2023/09/24 07:14:01;;;;;;;5.80;3.20;;;14.70;99.90;;;;;;4996168;28;20145;-73
2023/09/24 07:16:27;;;;;;;9.75;3.92;;;14.70;99.90;;;;;;4999516;28;20031;-72
2023/09/24 07:18:54;;;;;;;5.13;3.15;;;14.80;99.90;;;;;;5007339;28;20506;-74
2023/09/24 07:21:22;;;;;;;8.07;3.10;;;14.90;99.90;;;;;;5011336;28;20026;-73
2023/09/24 07:23:51;;;;;;;7.30;3.15;;;14.90;99.90;;;;;;5012873;28;20037;-77
2023/09/24 07:26:17;;;;;;;7.80;4.00;;;15.00;99.90;;;;;;5012475;28;20036;-76
2023/09/24 07:28:43;;;;;;;11.07;4.00;;;15.00;99.90;;;;;;5011890;28;20058;-71
2023/09/24 07:31:21;;;;;;;6.18;3.80;;;15.10;99.90;;;;;;5012280;28;20120;-72
2023/09/24 07:33:51;;;;;;;4.95;3.15;;;15.10;99.90;;;;;;5001334;28;20361;-78
2023/09/24 07:36:17;;;;;;;6.75;3.08;;;15.20;99.90;;;;;;4997466;28;20052;-75
2023/09/24 07:38:43;;;;;;;7.80;3.22;;;15.30;99.90;;;;;;5004056;28;20472;-66
2023/09/24 07:41:09;;;;;;;7.32;3.40;;;15.30;99.90;;;;;;5007102;28;20026;-73
2023/09/24 07:43:36;;;;;;;8.32;3.47;;;15.30;99.90;;;;;;5013509;28;20383;-68
2023/09/24 07:46:02;;;;;;;8.30;3.25;;;15.40;99.90;;;;;;5003159;28;20034;-77
2023/09/24 07:48:28;;;;;;;9.02;3.30;;;15.40;99.90;;;;;;5008631;28;20030;-70
2023/09/24 07:50:55;;;;;;;5.45;2.95;;;15.50;99.90;;;;;;5010483;28;20129;-77
2023/09/24 07:53:22;;;;;;;8.20;2.67;;;15.50;99.90;;;;;;5002979;28;20797;-73
2023/09/24 07:55:58;;;;;;;6.10;3.22;;;15.60;99.90;;;;;;5014042;28;20142;-69
2023/09/24 07:58:24;;;;;;;7.47;3.00;;;15.60;99.90;;;;;;5013866;28;20457;-68
2023/09/24 08:00:52;;;;;;;5.90;2.75;;;15.70;99.90;;;;;;4997141;28;20399;-68
2023/09/24 08:03:18;;;;;;;10.70;3.38;;;15.70;99.90;;;;;;4996838;28;20014;-69
2023/09/24 08:05:44;;;;;;;5.22;3.13;;;15.70;99.90;;;;;;5001549;28;20038;-68
2023/09/24 08:08:10;;;;;;;5.47;2.90;;;15.80;99.90;;;;;;5008128;28;20092;-77
2023/09/24 08:10:36;;;;;;;10.73;3.15;;;15.80;99.90;;;;;;4993099;28;20121;-77
2023/09/24 08:13:04;;;;;;;5.03;2.50;;;15.80;99.90;;;;;;5006027;28;20065;-77
2023/09/24 08:15:30;;;;;;;8.80;2.75;;;15.90;99.90;;;;;;4993551;28;20046;-71
2023/09/24 08:17:56;;;;;;;4.97;2.55;;;15.90;99.90;;;;;;4993692;28;20111;-68
2023/09/24 08:20:22;;;;;;;5.50;2.88;;;15.90;99.90;;;;;;4994230;28;20469;-68
2023/09/24 08:22:48;;;;;;;8.50;2.30;;;15.90;99.90;;;;;;4995115;28;20025;-69
2023/09/24 08:25:14;;;;;;;6.53;2.30;;;16.00;99.90;;;;;;4991449;28;20030;-67
2023/09/24 08:27:40;;;;;;;6.43;2.30;;;16.00;99.90;;;;;;4998488;28;20071;-70
2023/09/24 08:30:06;;;;;;;5.85;2.22;;;16.00;99.90;;;;;;4998385;28;20164;-68
2023/09/24 08:32:32;;;;;;;7.28;2.20;;;16.10;99.90;;;;;;4994067;28;20037;-67
2023/09/24 08:34:57;;;;;;;7.13;2.30;;;16.10;99.90;;;;;;4994815;28;20018;-74
2023/09/24 08:37:23;;;;;;;9.43;2.33;;;16.10;99.90;;;;;;5000026;28;20509;-76
2023/09/24 08:39:48;;;;;;;5.65;2.10;;;16.20;99.90;;;;;;4997748;28;20125;-67
2023/09/24 08:42:18;;;;;;;10.40;1.92;;;16.20;99.90;;;;;;4999199;28;20764;-70
2023/09/24 08:44:50;;;;;;;6.88;1.90;;;16.30;99.90;;;;;;4996974;28;20050;-67
2023/09/24 08:47:17;;;;;;;6.50;2.38;;;16.20;99.90;;;;;;4997748;28;20036;-66
2023/09/24 08:49:43;;;;;;;9.15;2.25;;;16.30;99.90;;;;;;5003550;28;20081;-66
2023/09/24 08:52:10;;;;;;;6.88;2.53;;;16.30;99.90;;;;;;4993303;28;20476;-67
2023/09/24 08:54:37;;;;;;;7.47;1.80;;;16.30;99.90;;;;;;4999850;28;20101;-66
2023/09/24 08:57:02;;;;;;;4.53;2.17;;;16.30;99.90;;;;;;4993779;28;20076;-63
2023/09/24 08:59:29;;;;;;;4.38;1.75;;;16.40;99.90;;;;;;5009117;28;20034;-64
2023/09/24 09:01:55;;;;;;;5.57;1.98;;;16.40;99.90;;;;;;5007540;28;20018;-65
2023/09/24 09:04:21;;;;;;;5.22;1.52;;;16.40;99.90;;;;;;5008475;28;20033;-64
2023/09/24 09:06:46;;;;;;;6.45;1.95;;;16.40;99.90;;;;;;5003387;28;20030;-67
2023/09/24 09:09:24;;;;;;;8.05;2.35;;;16.50;99.90;;;;;;4997934;28;20026;-65
2023/09/24 09:11:50;;;;;;;8.73;1.85;;;16.60;99.90;;;;;;4999215;28;20499;-65
2023/09/24 09:14:16;;;;;;;8.85;2.10;;;16.60;99.90;;;;;;5006189;28;20026;-65
2023/09/24 09:16:56;;;;;;;6.72;2.15;;;16.60;99.90;;;;;;4997585;28;20109;-65
2023/09/24 09:19:22;;;;;;;6.57;1.58;;;16.70;99.90;;;;;;4999497;28;20109;-66
2023/09/24 09:21:48;;;;;;;10.55;2.67;;;16.70;99.90;;;;;;4993153;28;20136;-66
2023/09/24 09:24:23;;;;;;;7.30;2.30;;;16.70;99.90;;;;;;4991843;28;20027;-70
2023/09/24 09:26:58;;;;;;;7.15;2.08;;;16.70;99.90;;;;;;4997926;28;20023;-67
2023/09/24 09:29:25;;;;;;;5.05;1.65;;;16.80;99.90;;;;;;5016700;28;20023;-68
2023/09/24 09:31:52;;;;;;;6.45;2.58;;;16.80;99.90;;;;;;5004680;28;20028;-68
2023/09/24 09:34:19;;;;;;;7.60;4.10;;;16.80;99.90;;;;;;5005289;28;20026;-66
2023/09/24 09:36:44;;;;;;;8.23;2.60;;;16.90;99.90;;;;;;5000834;28;20021;-68
2023/09/24 09:39:10;;;;;;;8.98;2.97;;;16.90;99.90;;;;;;5009394;28;20076;-67
2023/09/24 09:41:40;;;;;;;8.38;3.13;;;16.90;99.90;;;;;;5004801;28;20092;-75
2023/09/24 09:44:07;;;;;;;7.47;3.28;;;16.90;99.90;;;;;;5000238;28;20027;-66
2023/09/24 09:46:45;;;;;;;13.07;3.50;;;17.00;99.90;;;;;;5004145;28;20042;-66
2023/09/24 09:49:13;;;;;;;9.02;3.70;;;17.10;99.90;;;;;;5007232;28;20128;-66
2023/09/24 09:51:48;;;;;;;6.93;2.65;;;17.10;99.90;;;;;;5007702;28;20383;-66
2023/09/24 09:54:15;;;;;;;4.38;2.20;;;17.10;99.90;;;;;;5014060;28;20137;-65
2023/09/24 09:56:42;;;;;;;6.50;1.90;;;17.10;99.90;;;;;;4997074;28;20409;-66
2023/09/24 09:59:09;;;;;;;5.57;2.38;;;17.20;99.90;;;;;;4995833;28;20101;-66
2023/09/24 10:01:35;;;;;;;5.00;2.15;;;17.20;99.90;;;;;;4998253;28;20060;-66
2023/09/24 10:04:05;;;;;;;3.90;2.00;;;17.30;99.90;;;;;;5007788;28;20038;-67
2023/09/24 10:06:34;;;;;;;6.68;2.10;;;17.30;99.90;;;;;;5004830;28;20026;-66
2023/09/24 10:09:01;;;;;;;6.15;2.35;;;17.30;99.90;;;;;;5003823;28;20042;-76
2023/09/24 10:11:32;;;;;;;5.93;2.03;;;17.30;99.90;;;;;;5005348;28;20046;-66
2023/09/24 10:14:05;;;;;;;7.63;2.50;;;17.30;99.90;;;;;;4997828;28;20112;-65
2023/09/24 10:16:41;;;;;;;5.38;2.40;;;17.40;99.90;;;;;;4998682;28;20054;-70
2023/09/24 10:19:08;;;;;;;10.02;3.70;;;17.30;99.90;;;;;;5009232;28;20368;-67
2023/09/24 10:21:39;;;;;;;8.32;3.33;;;17.40;99.90;;;;;;5007502;28;20092;-66
2023/09/24 10:24:13;;;;;;;9.57;3.33;;;17.40;99.90;;;;;;5009339;28;20038;-66
2023/09/24 10:26:48;;;;;;;5.20;3.22;;;17.40;99.90;;;;;;5008062;28;20041;-67
2023/09/24 10:29:15;;;;;;;6.85;3.38;;;17.40;99.90;;;;;;5004877;28;20026;-72
2023/09/24 10:32:11;;;;;;;5.32;2.63;;;17.40;99.90;;;;;;4999523;28;20030;-67
2023/09/24 10:35:09;;;;;;;6.55;2.80;;;17.40;99.90;;;;;;5004051;28;20709;-69
2023/09/24 10:37:38;;;;;;;8.43;2.63;;;17.50;99.90;;;;;;4974748;28;20117;-66
2023/09/24 10:40:09;;;;;;;7.45;2.38;;;17.50;99.90;;;;;;5002344;28;20018;-67
2023/09/24 10:42:39;;;;;;;8.57;2.38;;;17.60;99.90;;;;;;5001844;28;20037;-67
2023/09/24 10:45:07;;;;;;;5.40;2.33;;;17.60;99.90;;;;;;5007143;28;20033;-66
2023/09/24 10:47:44;;;;;;;6.25;1.77;;;17.60;99.90;;;;;;4997160;28;20387;-68
2023/09/24 10:50:21;;;;;;;6.30;2.17;;;17.60;99.90;;;;;;5001685;28;20471;-68
2023/09/24 10:53:01;;;;;;;4.32;2.17;;;17.70;99.90;;;;;;5007096;28;20034;-68
2023/09/24 10:55:30;;;;;;;5.35;1.48;;;17.70;99.90;;;;;;5008789;28;20100;-68
2023/09/24 10:58:11;;;;;;;4.32;1.80;;;17.70;99.90;;;;;;4995851;28;20045;-66
2023/09/24 11:00:37;;;;;;;3.20;1.40;;;17.70;99.90;;;;;;5006196;28;20117;-66
2023/09/24 11:03:08;;;;;;;4.93;1.38;;;17.70;99.90;;;;;;5012098;28;20079;-70
2023/09/24 11:05:54;;;;;;;5.50;1.83;;;17.70;99.90;;;;;;5011217;28;20018;-71
2023/09/24 11:08:26;;;;;;;5.43;1.92;;;17.80;99.90;;;;;;5014230;28;20072;-68
2023/09/24 11:10:52;;;;;;;4.50;1.25;;;17.80;99.90;;;;;;5013484;28;20034;-66
2023/09/24 11:13:22;;;;;;;6.60;1.88;;;17.80;99.90;;;;;;5004534;28;20490;-67
2023/09/24 11:15:48;;;;;;;4.00;1.55;;;17.80;99.90;;;;;;5010520;28;20045;-68
2023/09/24 11:18:14;;;;;;;4.93;1.55;;;17.80;99.90;;;;;;4995328;28;20065;-68
2023/09/24 11:20:48;;;;;;;2.70;1.30;;;17.90;99.90;;;;;;5007475;28;20441;-66
2023/09/24 11:23:13;;;;;;;3.58;1.42;;;17.90;99.90;;;;;;5005305;28;20499;-75
2023/09/24 11:25:39;;;;;;;2.90;1.67;;;17.90;99.90;;;;;;5018039;28;20040;-67
2023/09/24 11:28:06;;;;;;;4.30;1.55;;;17.90;99.90;;;;;;5003163;28;20404;-72
2023/09/24 11:30:43;;;;;;;5.40;2.03;;;17.90;99.90;;;;;;5012555;28;20124;-69
2023/09/24 11:33:17;;;;;;;4.55;1.45;;;18.00;99.90;;;;;;5004031;28;20623;-69
2023/09/24 11:35:44;;;;;;;4.70;1.65;;;18.00;99.90;;;;;;4999089;28;20035;-72
2023/09/24 11:38:10;;;;;;;4.82;1.95;;;18.10;99.90;;;;;;5012296;28;20076;-66
2023/09/24 11:40:38;;;;;;;3.28;1.52;;;18.00;99.90;;;;;;5009377;28;20078;-68
2023/09/24 11:43:15;;;;;;;3.58;1.50;;;18.10;99.70;;;;;;5005093;28;20467;-68
2023/09/24 11:45:55;;;;;;;3.78;1.65;;;18.20;99.30;;;;;;5003438;28;20052;-67
2023/09/24 11:48:29;;;;;;;4.68;1.48;;;18.10;99.30;;;;;;5007897;28;20030;-68
2023/09/24 11:50:56;;;;;;;5.57;1.70;;;18.10;99.20;;;;;;5005918;28;20037;-68
2023/09/24 11:53:23;;;;;;;6.32;1.60;;;18.20;99.20;;;;;;4997075;28;20030;-68
2023/09/24 11:55:54;;;;;;;5.97;2.05;;;18.20;99.10;;;;;;5000511;28;20014;-80
2023/09/24 11:58:23;;;;;;;4.55;1.70;;;18.20;99.10;;;;;;5002351;28;20026;-70
2023/09/24 12:00:48;;;;;;;3.35;1.80;;;18.20;99.10;;;;;;4997337;28;20133;-68
2023/09/24 12:03:15;;;;;;;6.47;2.15;;;18.30;99.10;;;;;;5009052;28;20518;-67
2023/09/24 12:05:44;;;;;;;4.25;1.70;;;18.30;99.10;;;;;;4992414;28;20547;-73
2023/09/24 12:08:10;;;;;;;4.05;1.27;;;18.30;99.00;;;;;;5008460;28;20026;-69
2023/09/24 12:10:38;;;;;;;3.67;1.30;;;18.30;98.90;;;;;;5007812;28;20038;-67
2023/09/24 12:13:05;;;;;;;8.38;2.13;;;18.40;99.00;;;;;;5004478;28;20484;-68
2023/09/24 12:15:32;;;;;;;5.93;1.80;;;18.30;98.90;;;;;;4998623;28;20041;-70
2023/09/24 12:18:04;;;;;;;2.78;1.48;;;18.40;99.00;;;;;;5000218;28;20030;-73
2023/09/24 12:20:37;;;;;;;4.07;1.25;;;18.40;99.00;;;;;;5004106;28;20036;-69
2023/09/24 12:23:06;;;;;;;5.43;1.50;;;18.40;99.00;;;;;;4998930;28;20056;-69
2023/09/24 12:25:38;;;;;;;5.18;1.60;;;18.50;99.00;;;;;;5010819;28;20030;-72
2023/09/24 12:28:05;;;;;;;8.48;2.22;;;18.60;98.90;;;;;;5028499;28;20021;-69
2023/09/24 12:30:31;;;;;;;8.18;2.00;;;18.50;98.90;;;;;;5002591;28;20072;-72
2023/09/24 12:32:57;;;;;;;3.50;2.03;;;18.60;98.90;;;;;;5009595;28;20058;-69
2023/09/24 12:35:24;;;;;;;7.20;1.58;;;18.60;98.90;;;;;;5009066;28;20030;-70
2023/09/24 12:37:49;;;;;;;5.45;1.50;;;18.60;98.80;;;;;;5000978;28;20177;-68
2023/09/24 12:40:15;;;;;;;9.73;1.67;;;18.60;98.50;;;;;;5006192;28;20776;-75
2023/09/24 12:42:42;;;;;;;3.72;1.55;;;18.60;98.20;;;;;;5000060;28;20062;-69
2023/09/24 12:45:11;;;;;;;4.00;1.40;;;18.70;98.70;;;;;;5003873;28;20026;-71
2023/09/24 12:47:38;;;;;;;5.10;1.85;;;18.60;98.50;;;;;;5008176;28;20125;-68